sensor_id;sensor_type;location;lat;lon;timestamp;temperature;humidity
7704;DHT22;3894;49.700;10.770;2023-04-30T00:00:43;10.80;99.90
7704;DHT22;3894;49.700;10.770;2023-04-30T00:03:25;10.80;99.90
7704;DHT22;3894;49.700;10.770;2023-04-30T00:05:53;10.70;99.90
7704;DHT22;3894;49.700;10.770;2023-04-30T00:08:27;10.80;99.90
7704;DHT22;3894;49.700;10.770;2023-04-30T00:10:55;10.80;99.90
7704;DHT22;3894;49.700;10.770;2023-04-30T00:13:41;10.80;99.90
7704;DHT22;3894;49.700;10.770;2023-04-30T00:16:09;10.70;99.90
7704;DHT22;3894;49.700;10.770;2023-04-30T00:18:55;10.70;99.90
7704;DHT22;3894;49.700;10.770;2023-04-30T00:21:35;10.70;99.90
7704;DHT22;3894;49.700;10.770;2023-04-30T00:24:06;10.80;99.90
7704;DHT22;3894;49.700;10.770;2023-04-30T00:26:37;10.70;99.90
7704;DHT22;3894;49.700;10.770;2023-04-30T00:29:12;10.80;99.90
7704;DHT22;3894;49.700;10.770;2023-04-30T00:31:44;10.70;99.90
7704;DHT22;3894;49.700;10.770;2023-04-30T00:34:12;10.70;99.90
7704;DHT22;3894;49.700;10.770;2023-04-30T00:36:41;10.70;99.90
7704;DHT22;3894;49.700;10.770;2023-04-30T00:39:10;10.70;99.90
7704;DHT22;3894;49.700;10.770;2023-04-30T00:41:41;10.70;99.90
7704;DHT22;3894;49.700;10.770;2023-04-30T00:44:26;10.60;99.90
7704;DHT22;3894;49.700;10.770;2023-04-30T00:46:52;10.60;99.90
7704;DHT22;3894;49.700;10.770;2023-04-30T00:49:34;10.60;99.90
7704;DHT22;3894;49.700;10.770;2023-04-30T00:52:05;10.60;99.90
7704;DHT22;3894;49.700;10.770;2023-04-30T01:00:33;10.50;99.90
7704;DHT22;3894;49.700;10.770;2023-04-30T01:03:06;10.40;99.90
7704;DHT22;3894;49.700;10.770;2023-04-30T01:05:44;10.50;99.90
7704;DHT22;3894;49.700;10.770;2023-04-30T01:08:36;10.40;99.90
7704;DHT22;3894;49.700;10.770;2023-04-30T01:14:09;10.40;99.90
7704;DHT22;3894;49.700;10.770;2023-04-30T01:17:12;10.40;99.90
7704;DHT22;3894;49.700;10.770;2023-04-30T01:20:05;10.40;99.90
7704;DHT22;3894;49.700;10.770;2023-04-30T01:25:50;10.40;99.90
7704;DHT22;3894;49.700;10.770;2023-04-30T01:28:45;10.40;99.90
7704;DHT22;3894;49.700;10.770;2023-04-30T01:31:30;10.40;99.90
7704;DHT22;3894;49.700;10.770;2023-04-30T01:33:59;10.40;99.90
7704;DHT22;3894;49.700;10.770;2023-04-30T01:37:01;10.40;99.90
7704;DHT22;3894;49.700;10.770;2023-04-30T01:46:06;10.30;99.90
7704;DHT22;3894;49.700;10.770;2023-04-30T01:51:46;10.30;99.90
7704;DHT22;3894;49.700;10.770;2023-04-30T01:54:44;10.30;99.90
7704;DHT22;3894;49.700;10.770;2023-04-30T01:58:18;10.30;99.90
7704;DHT22;3894;49.700;10.770;2023-04-30T02:00:50;10.20;99.90
7704;DHT22;3894;49.700;10.770;2023-04-30T02:03:16;10.20;99.90
7704;DHT22;3894;49.700;10.770;2023-04-30T02:06:06;10.20;99.90
7704;DHT22;3894;49.700;10.770;2023-04-30T02:08:48;10.20;99.90
7704;DHT22;3894;49.700;10.770;2023-04-30T02:11:29;10.10;99.90
7704;DHT22;3894;49.700;10.770;2023-04-30T02:14:00;10.10;99.90
7704;DHT22;3894;49.700;10.770;2023-04-30T02:16:36;10.10;99.90
7704;DHT22;3894;49.700;10.770;2023-04-30T02:19:14;10.10;99.90
7704;DHT22;3894;49.700;10.770;2023-04-30T02:21:45;10.10;99.90
7704;DHT22;3894;49.700;10.770;2023-04-30T02:24:14;10.10;99.90
7704;DHT22;3894;49.700;10.770;2023-04-30T02:26:39;10.10;99.90
7704;DHT22;3894;49.700;10.770;2023-04-30T02:29:26;10.10;99.90
7704;DHT22;3894;49.700;10.770;2023-04-30T02:31:58;10.10;99.90
7704;DHT22;3894;49.700;10.770;2023-04-30T02:34:43;10.10;99.90
7704;DHT22;3894;49.700;10.770;2023-04-30T02:37:24;10.10;99.90
7704;DHT22;3894;49.700;10.770;2023-04-30T02:39:53;10.10;99.90
7704;DHT22;3894;49.700;10.770;2023-04-30T02:42:21;10.10;99.90
7704;DHT22;3894;49.700;10.770;2023-04-30T02:44:50;10.10;99.90
7704;DHT22;3894;49.700;10.770;2023-04-30T02:47:24;10.10;99.90
7704;DHT22;3894;49.700;10.770;2023-04-30T02:49:59;10.10;99.90
7704;DHT22;3894;49.700;10.770;2023-04-30T02:52:31;10.10;99.90
7704;DHT22;3894;49.700;10.770;2023-04-30T02:54:57;10.10;99.90
7704;DHT22;3894;49.700;10.770;2023-04-30T02:57:43;10.00;99.90
7704;DHT22;3894;49.700;10.770;2023-04-30T03:00:18;10.00;99.90
7704;DHT22;3894;49.700;10.770;2023-04-30T03:02:50;10.00;99.90
7704;DHT22;3894;49.700;10.770;2023-04-30T03:05:21;10.00;99.90
7704;DHT22;3894;49.700;10.770;2023-04-30T03:07:58;10.10;99.90
7704;DHT22;3894;49.700;10.770;2023-04-30T03:10:27;10.10;99.90
7704;DHT22;3894;49.700;10.770;2023-04-30T03:12:58;10.10;99.90
7704;DHT22;3894;49.700;10.770;2023-04-30T03:15:39;10.00;99.90
7704;DHT22;3894;49.700;10.770;2023-04-30T03:18:10;10.00;99.90
7704;DHT22;3894;49.700;10.770;2023-04-30T03:21:05;10.00;99.90
7704;DHT22;3894;49.700;10.770;2023-04-30T03:23:44;10.00;99.90
7704;DHT22;3894;49.700;10.770;2023-04-30T03:26:28;10.00;99.90
7704;DHT22;3894;49.700;10.770;2023-04-30T03:28:59;10.00;99.90
7704;DHT22;3894;49.700;10.770;2023-04-30T03:31:38;10.00;99.90
7704;DHT22;3894;49.700;10.770;2023-04-30T03:34:24;10.00;99.90
7704;DHT22;3894;49.700;10.770;2023-04-30T03:37:06;10.00;99.90
7704;DHT22;3894;49.700;10.770;2023-04-30T03:39:34;10.00;99.90
7704;DHT22;3894;49.700;10.770;2023-04-30T03:42:21;10.00;99.90
7704;DHT22;3894;49.700;10.770;2023-04-30T03:45:01;10.00;99.90
7704;DHT22;3894;49.700;10.770;2023-04-30T03:47:27;10.00;99.90
7704;DHT22;3894;49.700;10.770;2023-04-30T03:50:05;10.00;99.90
7704;DHT22;3894;49.700;10.770;2023-04-30T03:52:37;10.00;99.90
7704;DHT22;3894;49.700;10.770;2023-04-30T03:55:24;10.00;99.90
7704;DHT22;3894;49.700;10.770;2023-04-30T03:57:58;9.90;99.90
7704;DHT22;3894;49.700;10.770;2023-04-30T04:00:36;9.90;99.90
7704;DHT22;3894;49.700;10.770;2023-04-30T04:03:26;9.90;99.90
7704;DHT22;3894;49.700;10.770;2023-04-30T04:05:55;9.90;99.90
7704;DHT22;3894;49.700;10.770;2023-04-30T04:08:29;9.90;99.90
7704;DHT22;3894;49.700;10.770;2023-04-30T04:11:07;9.90;99.90
7704;DHT22;3894;49.700;10.770;2023-04-30T04:14:07;9.90;99.90
7704;DHT22;3894;49.700;10.770;2023-04-30T04:16:33;9.80;99.90
7704;DHT22;3894;49.700;10.770;2023-04-30T04:19:01;9.80;99.90
7704;DHT22;3894;49.700;10.770;2023-04-30T04:21:36;9.80;99.90
7704;DHT22;3894;49.700;10.770;2023-04-30T04:24:11;9.80;99.90
7704;DHT22;3894;49.700;10.770;2023-04-30T04:26:51;9.80;99.90
7704;DHT22;3894;49.700;10.770;2023-04-30T04:29:23;9.80;99.90
7704;DHT22;3894;49.700;10.770;2023-04-30T04:32:07;9.80;99.90
7704;DHT22;3894;49.700;10.770;2023-04-30T04:34:37;9.80;99.90
7704;DHT22;3894;49.700;10.770;2023-04-30T04:37:27;9.80;99.90
7704;DHT22;3894;49.700;10.770;2023-04-30T04:39:57;9.80;99.90
7704;DHT22;3894;49.700;10.770;2023-04-30T04:42:35;9.80;99.90
7704;DHT22;3894;49.700;10.770;2023-04-30T04:45:04;9.80;99.90
7704;DHT22;3894;49.700;10.770;2023-04-30T04:47:39;9.80;99.90
7704;DHT22;3894;49.700;10.770;2023-04-30T04:53:34;9.90;99.90
7704;DHT22;3894;49.700;10.770;2023-04-30T04:56:17;9.90;99.90
7704;DHT22;3894;49.700;10.770;2023-04-30T04:58:51;9.90;99.90
7704;DHT22;3894;49.700;10.770;2023-04-30T05:01:30;10.00;99.90
7704;DHT22;3894;49.700;10.770;2023-04-30T05:04:01;10.00;99.90
7704;DHT22;3894;49.700;10.770;2023-04-30T05:06:49;10.10;99.90
7704;DHT22;3894;49.700;10.770;2023-04-30T05:09:25;10.10;99.90
7704;DHT22;3894;49.700;10.770;2023-04-30T05:11:54;10.20;99.90
7704;DHT22;3894;49.700;10.770;2023-04-30T05:14:23;10.30;99.90
7704;DHT22;3894;49.700;10.770;2023-04-30T05:17:15;10.30;99.90
7704;DHT22;3894;49.700;10.770;2023-04-30T05:19:51;10.40;99.90
7704;DHT22;3894;49.700;10.770;2023-04-30T05:22:27;10.50;99.90
7704;DHT22;3894;49.700;10.770;2023-04-30T05:24:55;10.50;99.90
7704;DHT22;3894;49.700;10.770;2023-04-30T05:27:31;10.50;99.90
7704;DHT22;3894;49.700;10.770;2023-04-30T05:29:57;10.60;99.90
7704;DHT22;3894;49.700;10.770;2023-04-30T05:32:26;10.70;99.90
7704;DHT22;3894;49.700;10.770;2023-04-30T05:34:55;10.70;99.90
7704;DHT22;3894;49.700;10.770;2023-04-30T05:37:23;10.80;99.90
7704;DHT22;3894;49.700;10.770;2023-04-30T05:40:00;11.00;99.90
7704;DHT22;3894;49.700;10.770;2023-04-30T05:42:36;11.30;99.90
7704;DHT22;3894;49.700;10.770;2023-04-30T05:45:08;11.30;99.90
7704;DHT22;3894;49.700;10.770;2023-04-30T05:47:47;11.10;99.90
7704;DHT22;3894;49.700;10.770;2023-04-30T05:50:23;11.20;99.90
7704;DHT22;3894;49.700;10.770;2023-04-30T05:52:56;11.40;99.90
7704;DHT22;3894;49.700;10.770;2023-04-30T05:55:28;11.40;99.90
7704;DHT22;3894;49.700;10.770;2023-04-30T05:58:08;11.50;99.90
7704;DHT22;3894;49.700;10.770;2023-04-30T06:01:06;11.90;99.90
7704;DHT22;3894;49.700;10.770;2023-04-30T06:03:41;12.30;99.90
7704;DHT22;3894;49.700;10.770;2023-04-30T06:06:31;12.60;99.90
7704;DHT22;3894;49.700;10.770;2023-04-30T06:09:08;12.80;99.90
7704;DHT22;3894;49.700;10.770;2023-04-30T06:11:40;12.90;99.90
7704;DHT22;3894;49.700;10.770;2023-04-30T06:14:18;13.00;99.90
7704;DHT22;3894;49.700;10.770;2023-04-30T06:17:12;13.10;99.90
7704;DHT22;3894;49.700;10.770;2023-04-30T06:19:45;13.10;99.90
7704;DHT22;3894;49.700;10.770;2023-04-30T06:22:29;13.30;99.90
7704;DHT22;3894;49.700;10.770;2023-04-30T06:25:06;13.40;99.90
7704;DHT22;3894;49.700;10.770;2023-04-30T06:27:35;13.50;99.90
7704;DHT22;3894;49.700;10.770;2023-04-30T06:30:10;13.60;99.90
7704;DHT22;3894;49.700;10.770;2023-04-30T06:32:39;13.70;99.90
7704;DHT22;3894;49.700;10.770;2023-04-30T06:35:24;13.80;99.90
7704;DHT22;3894;49.700;10.770;2023-04-30T06:38:00;13.80;99.90
7704;DHT22;3894;49.700;10.770;2023-04-30T06:40:28;13.80;99.90
7704;DHT22;3894;49.700;10.770;2023-04-30T06:43:06;14.00;99.90
7704;DHT22;3894;49.700;10.770;2023-04-30T06:45:35;14.20;99.90
7704;DHT22;3894;49.700;10.770;2023-04-30T06:48:23;14.30;99.90
7704;DHT22;3894;49.700;10.770;2023-04-30T06:50:52;14.40;99.90
7704;DHT22;3894;49.700;10.770;2023-04-30T06:53:17;14.60;99.90
7704;DHT22;3894;49.700;10.770;2023-04-30T06:55:53;14.70;99.90
7704;DHT22;3894;49.700;10.770;2023-04-30T06:58:31;14.80;99.90
7704;DHT22;3894;49.700;10.770;2023-04-30T07:01:04;14.90;99.90
7704;DHT22;3894;49.700;10.770;2023-04-30T07:06:22;15.00;99.90
7704;DHT22;3894;49.700;10.770;2023-04-30T07:08:54;15.30;99.90
7704;DHT22;3894;49.700;10.770;2023-04-30T07:11:20;15.50;99.90
7704;DHT22;3894;49.700;10.770;2023-04-30T07:13:45;15.60;99.90
7704;DHT22;3894;49.700;10.770;2023-04-30T07:16:11;15.60;99.90
7704;DHT22;3894;49.700;10.770;2023-04-30T07:18:37;15.60;99.90
7704;DHT22;3894;49.700;10.770;2023-04-30T07:21:03;15.80;99.90
7704;DHT22;3894;49.700;10.770;2023-04-30T07:23:28;15.80;99.90
7704;DHT22;3894;49.700;10.770;2023-04-30T07:25:54;15.90;99.90
7704;DHT22;3894;49.700;10.770;2023-04-30T07:28:19;15.90;99.90
7704;DHT22;3894;49.700;10.770;2023-04-30T07:30:45;16.10;99.90
7704;DHT22;3894;49.700;10.770;2023-04-30T07:33:11;16.20;99.90
7704;DHT22;3894;49.700;10.770;2023-04-30T07:35:37;16.10;99.90
7704;DHT22;3894;49.700;10.770;2023-04-30T07:38:02;16.10;99.90
7704;DHT22;3894;49.700;10.770;2023-04-30T07:40:30;16.10;99.90
7704;DHT22;3894;49.700;10.770;2023-04-30T07:42:55;16.00;99.90
7704;DHT22;3894;49.700;10.770;2023-04-30T07:45:21;16.10;99.90
7704;DHT22;3894;49.700;10.770;2023-04-30T07:47:46;16.30;99.90
7704;DHT22;3894;49.700;10.770;2023-04-30T07:50:13;16.50;99.90
7704;DHT22;3894;49.700;10.770;2023-04-30T07:52:40;16.70;99.90
7704;DHT22;3894;49.700;10.770;2023-04-30T07:55:05;16.80;99.90
7704;DHT22;3894;49.700;10.770;2023-04-30T07:57:31;16.80;99.90
7704;DHT22;3894;49.700;10.770;2023-04-30T07:59:57;16.80;99.90
7704;DHT22;3894;49.700;10.770;2023-04-30T08:02:23;16.80;99.90
7704;DHT22;3894;49.700;10.770;2023-04-30T08:04:49;16.90;99.90
7704;DHT22;3894;49.700;10.770;2023-04-30T08:07:14;16.90;99.90
7704;DHT22;3894;49.700;10.770;2023-04-30T08:09:40;16.90;99.90
7704;DHT22;3894;49.700;10.770;2023-04-30T08:12:07;17.10;99.90
7704;DHT22;3894;49.700;10.770;2023-04-30T08:14:33;17.20;99.90
7704;DHT22;3894;49.700;10.770;2023-04-30T08:16:58;17.10;99.90
7704;DHT22;3894;49.700;10.770;2023-04-30T08:19:25;17.10;99.90
7704;DHT22;3894;49.700;10.770;2023-04-30T08:21:51;17.30;99.90
7704;DHT22;3894;49.700;10.770;2023-04-30T08:24:16;17.50;99.90
7704;DHT22;3894;49.700;10.770;2023-04-30T08:26:42;17.70;99.90
7704;DHT22;3894;49.700;10.770;2023-04-30T08:29:08;17.80;99.90
7704;DHT22;3894;49.700;10.770;2023-04-30T08:31:34;18.00;99.90
7704;DHT22;3894;49.700;10.770;2023-04-30T08:33:59;18.00;99.90
7704;DHT22;3894;49.700;10.770;2023-04-30T08:36:25;18.00;99.90
7704;DHT22;3894;49.700;10.770;2023-04-30T08:38:54;18.00;99.90
7704;DHT22;3894;49.700;10.770;2023-04-30T08:41:25;18.00;99.90
7704;DHT22;3894;49.700;10.770;2023-04-30T08:43:52;18.00;99.90
7704;DHT22;3894;49.700;10.770;2023-04-30T08:46:19;18.00;99.90
7704;DHT22;3894;49.700;10.770;2023-04-30T08:48:45;18.10;99.90
7704;DHT22;3894;49.700;10.770;2023-04-30T08:51:13;18.20;99.90
7704;DHT22;3894;49.700;10.770;2023-04-30T08:53:41;18.10;99.90
7704;DHT22;3894;49.700;10.770;2023-04-30T08:56:10;18.20;99.90
7704;DHT22;3894;49.700;10.770;2023-04-30T08:58:35;18.20;99.90
7704;DHT22;3894;49.700;10.770;2023-04-30T09:01:02;18.00;99.90
7704;DHT22;3894;49.700;10.770;2023-04-30T09:03:30;17.90;99.90
7704;DHT22;3894;49.700;10.770;2023-04-30T09:05:55;18.00;99.90
7704;DHT22;3894;49.700;10.770;2023-04-30T09:08:43;18.30;99.90
7704;DHT22;3894;49.700;10.770;2023-04-30T09:11:29;18.40;99.90
7704;DHT22;3894;49.700;10.770;2023-04-30T09:13:59;18.40;99.90
7704;DHT22;3894;49.700;10.770;2023-04-30T09:16:26;18.50;99.90
7704;DHT22;3894;49.700;10.770;2023-04-30T09:18:52;18.60;99.90
7704;DHT22;3894;49.700;10.770;2023-04-30T09:21:34;18.60;99.90
7704;DHT22;3894;49.700;10.770;2023-04-30T09:24:02;18.60;99.90
7704;DHT22;3894;49.700;10.770;2023-04-30T09:26:36;18.60;99.90
7704;DHT22;3894;49.700;10.770;2023-04-30T09:29:02;18.60;99.90
7704;DHT22;3894;49.700;10.770;2023-04-30T09:31:33;18.90;99.90
7704;DHT22;3894;49.700;10.770;2023-04-30T09:33:59;19.00;99.90
7704;DHT22;3894;49.700;10.770;2023-04-30T09:36:25;19.00;99.90
7704;DHT22;3894;49.700;10.770;2023-04-30T09:38:52;18.90;99.90
7704;DHT22;3894;49.700;10.770;2023-04-30T09:41:22;18.70;99.90
7704;DHT22;3894;49.700;10.770;2023-04-30T09:43:48;18.70;99.90
7704;DHT22;3894;49.700;10.770;2023-04-30T09:46:14;19.00;99.90
7704;DHT22;3894;49.700;10.770;2023-04-30T09:48:43;19.00;99.90
7704;DHT22;3894;49.700;10.770;2023-04-30T09:51:09;18.90;99.90
7704;DHT22;3894;49.700;10.770;2023-04-30T09:53:37;18.80;99.90
7704;DHT22;3894;49.700;10.770;2023-04-30T09:56:06;18.80;99.90
7704;DHT22;3894;49.700;10.770;2023-04-30T09:58:36;18.70;99.90
7704;DHT22;3894;49.700;10.770;2023-04-30T10:01:04;18.60;99.90
7704;DHT22;3894;49.700;10.770;2023-04-30T10:03:31;18.60;99.90
7704;DHT22;3894;49.700;10.770;2023-04-30T10:05:58;18.80;99.90
7704;DHT22;3894;49.700;10.770;2023-04-30T10:08:26;18.90;99.90
7704;DHT22;3894;49.700;10.770;2023-04-30T10:11:02;18.90;99.90
7704;DHT22;3894;49.700;10.770;2023-04-30T10:13:30;18.50;99.90
7704;DHT22;3894;49.700;10.770;2023-04-30T10:15:59;18.50;99.90
7704;DHT22;3894;49.700;10.770;2023-04-30T10:18:33;18.50;99.90
7704;DHT22;3894;49.700;10.770;2023-04-30T10:21:02;18.70;99.90
7704;DHT22;3894;49.700;10.770;2023-04-30T10:23:29;18.90;99.90
7704;DHT22;3894;49.700;10.770;2023-04-30T10:25:56;18.90;99.90
7704;DHT22;3894;49.700;10.770;2023-04-30T10:28:22;19.00;99.90
7704;DHT22;3894;49.700;10.770;2023-04-30T10:30:49;19.30;99.90
7704;DHT22;3894;49.700;10.770;2023-04-30T10:33:22;19.40;99.90
7704;DHT22;3894;49.700;10.770;2023-04-30T10:35:56;19.50;99.90
7704;DHT22;3894;49.700;10.770;2023-04-30T10:38:25;19.60;99.90
7704;DHT22;3894;49.700;10.770;2023-04-30T10:40:54;19.50;99.70
7704;DHT22;3894;49.700;10.770;2023-04-30T10:43:23;19.50;99.40
7704;DHT22;3894;49.700;10.770;2023-04-30T10:45:49;19.60;99.20
7704;DHT22;3894;49.700;10.770;2023-04-30T10:48:15;19.70;99.20
7704;DHT22;3894;49.700;10.770;2023-04-30T10:50:57;19.80;98.90
7704;DHT22;3894;49.700;10.770;2023-04-30T10:53:23;19.80;98.30
7704;DHT22;3894;49.700;10.770;2023-04-30T10:56:00;19.80;98.30
7704;DHT22;3894;49.700;10.770;2023-04-30T10:58:32;19.90;98.40
7704;DHT22;3894;49.700;10.770;2023-04-30T11:01:15;20.20;98.40
7704;DHT22;3894;49.700;10.770;2023-04-30T11:04:08;20.10;97.70
7704;DHT22;3894;49.700;10.770;2023-04-30T11:09:17;20.00;97.50
7704;DHT22;3894;49.700;10.770;2023-04-30T11:11:46;20.20;97.50
7704;DHT22;3894;49.700;10.770;2023-04-30T11:14:19;20.30;97.30
7704;DHT22;3894;49.700;10.770;2023-04-30T11:16:48;20.20;97.00
7704;DHT22;3894;49.700;10.770;2023-04-30T11:19:14;20.10;96.90
7704;DHT22;3894;49.700;10.770;2023-04-30T11:22:26;20.10;96.60
7704;DHT22;3894;49.700;10.770;2023-04-30T11:27:22;20.60;97.00
7704;DHT22;3894;49.700;10.770;2023-04-30T11:29:49;20.40;96.10
7704;DHT22;3894;49.700;10.770;2023-04-30T11:32:18;19.80;95.90
7704;DHT22;3894;49.700;10.770;2023-04-30T11:34:43;19.80;96.90
7704;DHT22;3894;49.700;10.770;2023-04-30T11:37:12;20.10;96.70
7704;DHT22;3894;49.700;10.770;2023-04-30T11:39:39;20.30;96.70
7704;DHT22;3894;49.700;10.770;2023-04-30T11:42:06;20.40;96.30
7704;DHT22;3894;49.700;10.770;2023-04-30T11:44:33;20.60;95.90
7704;DHT22;3894;49.700;10.770;2023-04-30T11:46:59;20.60;95.70
7704;DHT22;3894;49.700;10.770;2023-04-30T11:49:26;20.50;94.70
7704;DHT22;3894;49.700;10.770;2023-04-30T11:51:52;20.40;95.00
7704;DHT22;3894;49.700;10.770;2023-04-30T11:54:18;20.60;94.90
7704;DHT22;3894;49.700;10.770;2023-04-30T11:56:47;20.80;94.90
7704;DHT22;3894;49.700;10.770;2023-04-30T11:59:14;20.80;95.10
7704;DHT22;3894;49.700;10.770;2023-04-30T12:01:40;20.90;94.20
7704;DHT22;3894;49.700;10.770;2023-04-30T12:04:06;21.00;95.00
7704;DHT22;3894;49.700;10.770;2023-04-30T12:06:34;21.20;93.90
7704;DHT22;3894;49.700;10.770;2023-04-30T12:09:01;21.10;93.40
7704;DHT22;3894;49.700;10.770;2023-04-30T12:11:50;21.00;92.20
7704;DHT22;3894;49.700;10.770;2023-04-30T12:14:16;21.00;93.40
7704;DHT22;3894;49.700;10.770;2023-04-30T12:16:46;21.10;92.50
7704;DHT22;3894;49.700;10.770;2023-04-30T12:19:16;21.20;93.40
7704;DHT22;3894;49.700;10.770;2023-04-30T12:21:44;21.30;92.60
7704;DHT22;3894;49.700;10.770;2023-04-30T12:24:14;21.30;93.60
7704;DHT22;3894;49.700;10.770;2023-04-30T12:26:41;21.40;92.80
7704;DHT22;3894;49.700;10.770;2023-04-30T12:29:25;21.40;92.30
7704;DHT22;3894;49.700;10.770;2023-04-30T12:31:51;21.40;92.60
7704;DHT22;3894;49.700;10.770;2023-04-30T12:34:18;21.40;91.60
7704;DHT22;3894;49.700;10.770;2023-04-30T12:36:44;21.30;91.70
7704;DHT22;3894;49.700;10.770;2023-04-30T12:39:11;21.30;91.70
7704;DHT22;3894;49.700;10.770;2023-04-30T12:41:42;21.40;91.90
7704;DHT22;3894;49.700;10.770;2023-04-30T12:44:22;21.30;91.60
7704;DHT22;3894;49.700;10.770;2023-04-30T12:46:53;21.40;91.90
7704;DHT22;3894;49.700;10.770;2023-04-30T12:49:33;21.60;91.50
7704;DHT22;3894;49.700;10.770;2023-04-30T12:52:07;21.60;91.30
7704;DHT22;3894;49.700;10.770;2023-04-30T12:54:33;21.40;91.00
7704;DHT22;3894;49.700;10.770;2023-04-30T12:57:18;21.20;91.50
7704;DHT22;3894;49.700;10.770;2023-04-30T12:59:59;21.20;91.10
7704;DHT22;3894;49.700;10.770;2023-04-30T13:02:27;21.20;90.60
7704;DHT22;3894;49.700;10.770;2023-04-30T13:04:53;21.20;90.90
7704;DHT22;3894;49.700;10.770;2023-04-30T13:07:19;21.10;90.40
7704;DHT22;3894;49.700;10.770;2023-04-30T13:09:45;21.10;91.40
7704;DHT22;3894;49.700;10.770;2023-04-30T13:12:11;21.50;91.70
7704;DHT22;3894;49.700;10.770;2023-04-30T13:14:36;21.70;91.60
7704;DHT22;3894;49.700;10.770;2023-04-30T13:17:02;21.70;91.20
7704;DHT22;3894;49.700;10.770;2023-04-30T13:19:30;21.70;91.50
7704;DHT22;3894;49.700;10.770;2023-04-30T13:21:56;21.60;91.20
7704;DHT22;3894;49.700;10.770;2023-04-30T13:24:23;21.50;91.60
7704;DHT22;3894;49.700;10.770;2023-04-30T13:26:49;21.50;91.30
7704;DHT22;3894;49.700;10.770;2023-04-30T13:29:14;21.30;91.10
7704;DHT22;3894;49.700;10.770;2023-04-30T13:31:40;20.80;91.10
7704;DHT22;3894;49.700;10.770;2023-04-30T13:34:07;20.80;91.00
7704;DHT22;3894;49.700;10.770;2023-04-30T13:36:33;21.00;91.10
7704;DHT22;3894;49.700;10.770;2023-04-30T13:38:59;20.70;90.70
7704;DHT22;3894;49.700;10.770;2023-04-30T13:41:25;20.10;91.00
7704;DHT22;3894;49.700;10.770;2023-04-30T13:43:51;19.80;91.70
7704;DHT22;3894;49.700;10.770;2023-04-30T13:46:17;19.50;91.80
7704;DHT22;3894;49.700;10.770;2023-04-30T13:48:42;19.60;92.40
7704;DHT22;3894;49.700;10.770;2023-04-30T13:51:12;19.80;92.50
7704;DHT22;3894;49.700;10.770;2023-04-30T13:53:38;20.10;92.10
7704;DHT22;3894;49.700;10.770;2023-04-30T13:56:05;20.30;91.60
7704;DHT22;3894;49.700;10.770;2023-04-30T13:58:31;20.40;92.10
7704;DHT22;3894;49.700;10.770;2023-04-30T14:00:57;20.60;91.70
7704;DHT22;3894;49.700;10.770;2023-04-30T14:03:22;20.30;91.90
7704;DHT22;3894;49.700;10.770;2023-04-30T14:05:48;20.00;91.90
7704;DHT22;3894;49.700;10.770;2023-04-30T14:08:13;19.70;91.90
7704;DHT22;3894;49.700;10.770;2023-04-30T14:10:39;19.50;92.00
7704;DHT22;3894;49.700;10.770;2023-04-30T14:13:05;19.30;91.80
7704;DHT22;3894;49.700;10.770;2023-04-30T14:15:30;19.20;92.30
7704;DHT22;3894;49.700;10.770;2023-04-30T14:17:57;19.30;92.60
7704;DHT22;3894;49.700;10.770;2023-04-30T14:20:23;19.40;91.70
7704;DHT22;3894;49.700;10.770;2023-04-30T14:22:49;19.50;92.30
7704;DHT22;3894;49.700;10.770;2023-04-30T14:25:14;19.70;92.10
7704;DHT22;3894;49.700;10.770;2023-04-30T14:27:40;19.80;92.10
7704;DHT22;3894;49.700;10.770;2023-04-30T14:30:06;19.90;92.10
7704;DHT22;3894;49.700;10.770;2023-04-30T14:32:32;20.00;92.10
7704;DHT22;3894;49.700;10.770;2023-04-30T14:34:58;20.00;91.80
7704;DHT22;3894;49.700;10.770;2023-04-30T14:37:23;20.00;92.10
7704;DHT22;3894;49.700;10.770;2023-04-30T14:39:49;19.90;91.60
7704;DHT22;3894;49.700;10.770;2023-04-30T14:42:15;19.70;91.50
7704;DHT22;3894;49.700;10.770;2023-04-30T14:44:40;19.50;91.50
7704;DHT22;3894;49.700;10.770;2023-04-30T14:47:06;19.40;91.70
7704;DHT22;3894;49.700;10.770;2023-04-30T14:49:32;19.30;91.80
7704;DHT22;3894;49.700;10.770;2023-04-30T14:51:57;19.30;92.20
7704;DHT22;3894;49.700;10.770;2023-04-30T14:54:23;19.40;92.30
7704;DHT22;3894;49.700;10.770;2023-04-30T14:56:49;19.50;92.50
7704;DHT22;3894;49.700;10.770;2023-04-30T14:59:14;19.60;92.80
7704;DHT22;3894;49.700;10.770;2023-04-30T15:01:41;19.70;92.80
7704;DHT22;3894;49.700;10.770;2023-04-30T15:04:06;19.70;92.20
7704;DHT22;3894;49.700;10.770;2023-04-30T15:06:32;19.60;91.90
7704;DHT22;3894;49.700;10.770;2023-04-30T15:08:58;19.60;92.20
7704;DHT22;3894;49.700;10.770;2023-04-30T15:11:24;19.60;92.00
7704;DHT22;3894;49.700;10.770;2023-04-30T15:13:51;19.50;91.80
7704;DHT22;3894;49.700;10.770;2023-04-30T15:16:17;19.50;92.00
7704;DHT22;3894;49.700;10.770;2023-04-30T15:18:43;19.40;92.00
7704;DHT22;3894;49.700;10.770;2023-04-30T15:21:08;19.30;91.30
7704;DHT22;3894;49.700;10.770;2023-04-30T15:23:34;19.30;91.40
7704;DHT22;3894;49.700;10.770;2023-04-30T15:26:02;19.40;92.00
7704;DHT22;3894;49.700;10.770;2023-04-30T15:28:29;19.40;92.20
7704;DHT22;3894;49.700;10.770;2023-04-30T15:30:56;19.30;91.90
7704;DHT22;3894;49.700;10.770;2023-04-30T15:33:21;19.30;92.00
7704;DHT22;3894;49.700;10.770;2023-04-30T15:35:52;19.30;92.40
7704;DHT22;3894;49.700;10.770;2023-04-30T15:38:17;19.20;92.30
7704;DHT22;3894;49.700;10.770;2023-04-30T15:40:43;19.00;92.10
7704;DHT22;3894;49.700;10.770;2023-04-30T15:43:08;18.80;92.00
7704;DHT22;3894;49.700;10.770;2023-04-30T15:45:34;18.70;91.90
7704;DHT22;3894;49.700;10.770;2023-04-30T15:48:00;18.60;92.30
7704;DHT22;3894;49.700;10.770;2023-04-30T15:50:26;18.50;92.50
7704;DHT22;3894;49.700;10.770;2023-04-30T15:52:52;18.50;92.50
7704;DHT22;3894;49.700;10.770;2023-04-30T15:55:17;18.50;92.60
7704;DHT22;3894;49.700;10.770;2023-04-30T15:57:43;18.60;92.60
7704;DHT22;3894;49.700;10.770;2023-04-30T16:00:09;18.70;92.80
7704;DHT22;3894;49.700;10.770;2023-04-30T16:02:35;18.80;92.50
7704;DHT22;3894;49.700;10.770;2023-04-30T16:05:01;18.80;92.40
7704;DHT22;3894;49.700;10.770;2023-04-30T16:07:26;18.80;92.50
7704;DHT22;3894;49.700;10.770;2023-04-30T16:09:52;18.80;92.50
7704;DHT22;3894;49.700;10.770;2023-04-30T16:12:18;18.70;92.30
7704;DHT22;3894;49.700;10.770;2023-04-30T16:14:43;18.60;92.20
7704;DHT22;3894;49.700;10.770;2023-04-30T16:17:09;18.40;92.20
7704;DHT22;3894;49.700;10.770;2023-04-30T16:19:34;18.30;92.20
7704;DHT22;3894;49.700;10.770;2023-04-30T16:22:00;18.20;92.30
7704;DHT22;3894;49.700;10.770;2023-04-30T16:24:26;18.10;92.30
7704;DHT22;3894;49.700;10.770;2023-04-30T16:26:52;18.10;92.20
7704;DHT22;3894;49.700;10.770;2023-04-30T16:29:17;18.20;92.60
7704;DHT22;3894;49.700;10.770;2023-04-30T16:31:43;18.10;92.90
7704;DHT22;3894;49.700;10.770;2023-04-30T16:34:09;18.10;93.20
7704;DHT22;3894;49.700;10.770;2023-04-30T16:36:37;18.10;93.30
7704;DHT22;3894;49.700;10.770;2023-04-30T16:39:03;18.20;93.40
7704;DHT22;3894;49.700;10.770;2023-04-30T16:41:28;18.20;93.30
7704;DHT22;3894;49.700;10.770;2023-04-30T16:43:54;18.30;93.30
7704;DHT22;3894;49.700;10.770;2023-04-30T16:46:22;18.30;93.20